sensor_id;sensor_type;location;lat;lon;timestamp;temperature;humidity
8563;DHT22;16392;52.508;13.468;2023-04-15T00:00:05;8.80;99.90
8563;DHT22;16392;52.508;13.468;2023-04-15T00:02:33;8.80;99.90
8563;DHT22;16392;52.508;13.468;2023-04-15T00:05:03;8.80;99.90
8563;DHT22;16392;52.508;13.468;2023-04-15T00:07:29;8.80;99.90
8563;DHT22;16392;52.508;13.468;2023-04-15T00:09:56;8.80;99.90
8563;DHT22;16392;52.508;13.468;2023-04-15T00:12:23;8.80;99.90
8563;DHT22;16392;52.508;13.468;2023-04-15T00:14:50;8.80;99.90
8563;DHT22;16392;52.508;13.468;2023-04-15T00:17:17;8.80;99.90
8563;DHT22;16392;52.508;13.468;2023-04-15T00:19:44;8.80;99.90
8563;DHT22;16392;52.508;13.468;2023-04-15T00:22:12;8.80;99.90
8563;DHT22;16392;52.508;13.468;2023-04-15T00:24:39;8.80;99.90
8563;DHT22;16392;52.508;13.468;2023-04-15T00:27:05;8.80;99.90
8563;DHT22;16392;52.508;13.468;2023-04-15T00:29:32;8.80;99.90
8563;DHT22;16392;52.508;13.468;2023-04-15T00:31:59;8.80;99.90
8563;DHT22;16392;52.508;13.468;2023-04-15T00:34:27;8.80;99.90
8563;DHT22;16392;52.508;13.468;2023-04-15T00:36:54;8.80;99.90
8563;DHT22;16392;52.508;13.468;2023-04-15T00:39:22;8.80;99.90
8563;DHT22;16392;52.508;13.468;2023-04-15T00:41:48;8.80;99.90
8563;DHT22;16392;52.508;13.468;2023-04-15T00:44:15;8.80;99.90
8563;DHT22;16392;52.508;13.468;2023-04-15T00:46:43;8.80;99.90
8563;DHT22;16392;52.508;13.468;2023-04-15T00:49:10;8.80;99.90
8563;DHT22;16392;52.508;13.468;2023-04-15T00:51:37;8.80;99.90
8563;DHT22;16392;52.508;13.468;2023-04-15T00:54:04;8.80;99.90
8563;DHT22;16392;52.508;13.468;2023-04-15T00:56:34;8.80;99.90
8563;DHT22;16392;52.508;13.468;2023-04-15T00:59:01;8.80;99.90
8563;DHT22;16392;52.508;13.468;2023-04-15T01:01:27;8.80;99.90
8563;DHT22;16392;52.508;13.468;2023-04-15T01:03:55;8.80;99.90
8563;DHT22;16392;52.508;13.468;2023-04-15T01:06:21;8.80;99.90
8563;DHT22;16392;52.508;13.468;2023-04-15T01:08:48;8.80;99.90
8563;DHT22;16392;52.508;13.468;2023-04-15T01:11:16;8.80;99.90
8563;DHT22;16392;52.508;13.468;2023-04-15T01:13:44;8.80;99.90
8563;DHT22;16392;52.508;13.468;2023-04-15T01:16:11;8.80;99.90
8563;DHT22;16392;52.508;13.468;2023-04-15T01:18:39;8.80;99.90
8563;DHT22;16392;52.508;13.468;2023-04-15T01:21:05;8.80;99.90
8563;DHT22;16392;52.508;13.468;2023-04-15T01:23:33;8.80;99.90
8563;DHT22;16392;52.508;13.468;2023-04-15T01:26:02;8.80;99.90
8563;DHT22;16392;52.508;13.468;2023-04-15T01:28:29;8.80;99.90
8563;DHT22;16392;52.508;13.468;2023-04-15T01:31:08;8.80;99.90
8563;DHT22;16392;52.508;13.468;2023-04-15T01:33:35;8.80;99.90
8563;DHT22;16392;52.508;13.468;2023-04-15T01:36:02;8.80;99.90
8563;DHT22;16392;52.508;13.468;2023-04-15T01:38:29;8.80;99.90
8563;DHT22;16392;52.508;13.468;2023-04-15T01:40:56;8.80;99.90
8563;DHT22;16392;52.508;13.468;2023-04-15T01:43:24;8.80;99.90
8563;DHT22;16392;52.508;13.468;2023-04-15T01:45:52;8.80;99.90
8563;DHT22;16392;52.508;13.468;2023-04-15T01:48:18;8.80;99.90
8563;DHT22;16392;52.508;13.468;2023-04-15T01:50:45;8.80;99.90
8563;DHT22;16392;52.508;13.468;2023-04-15T01:53:12;8.80;99.90
8563;DHT22;16392;52.508;13.468;2023-04-15T01:55:38;8.80;99.90
8563;DHT22;16392;52.508;13.468;2023-04-15T01:58:05;8.80;99.90
8563;DHT22;16392;52.508;13.468;2023-04-15T02:00:33;8.80;99.90
8563;DHT22;16392;52.508;13.468;2023-04-15T02:02:59;8.80;99.90
8563;DHT22;16392;52.508;13.468;2023-04-15T02:05:26;8.80;99.90
8563;DHT22;16392;52.508;13.468;2023-04-15T02:07:53;8.80;99.90
8563;DHT22;16392;52.508;13.468;2023-04-15T02:10:19;8.80;99.90
8563;DHT22;16392;52.508;13.468;2023-04-15T02:12:46;8.80;99.90
8563;DHT22;16392;52.508;13.468;2023-04-15T02:15:13;8.80;99.90
8563;DHT22;16392;52.508;13.468;2023-04-15T02:17:41;8.80;99.90
8563;DHT22;16392;52.508;13.468;2023-04-15T02:20:10;8.80;99.90
8563;DHT22;16392;52.508;13.468;2023-04-15T02:22:38;8.80;99.90
8563;DHT22;16392;52.508;13.468;2023-04-15T02:25:05;8.80;99.90
8563;DHT22;16392;52.508;13.468;2023-04-15T02:27:31;8.90;99.90
8563;DHT22;16392;52.508;13.468;2023-04-15T02:29:58;8.80;99.90
8563;DHT22;16392;52.508;13.468;2023-04-15T02:32:25;8.90;99.90
8563;DHT22;16392;52.508;13.468;2023-04-15T02:34:52;8.90;99.90
8563;DHT22;16392;52.508;13.468;2023-04-15T02:37:19;8.90;99.90
8563;DHT22;16392;52.508;13.468;2023-04-15T02:39:45;8.80;99.90
8563;DHT22;16392;52.508;13.468;2023-04-15T02:42:12;8.90;99.90
8563;DHT22;16392;52.508;13.468;2023-04-15T02:44:38;8.90;99.90
8563;DHT22;16392;52.508;13.468;2023-04-15T02:47:05;8.90;99.90
8563;DHT22;16392;52.508;13.468;2023-04-15T02:49:32;8.90;99.90
8563;DHT22;16392;52.508;13.468;2023-04-15T02:52:00;8.90;99.90
8563;DHT22;16392;52.508;13.468;2023-04-15T02:54:26;9.00;99.90
8563;DHT22;16392;52.508;13.468;2023-04-15T02:56:53;8.90;99.90
8563;DHT22;16392;52.508;13.468;2023-04-15T02:59:20;8.90;99.90
8563;DHT22;16392;52.508;13.468;2023-04-15T03:01:47;9.00;99.90
8563;DHT22;16392;52.508;13.468;2023-04-15T03:04:13;9.00;99.90
8563;DHT22;16392;52.508;13.468;2023-04-15T03:06:40;9.00;99.90
8563;DHT22;16392;52.508;13.468;2023-04-15T03:09:08;9.00;99.90
8563;DHT22;16392;52.508;13.468;2023-04-15T03:11:34;9.00;99.90
8563;DHT22;16392;52.508;13.468;2023-04-15T03:14:04;9.00;99.90
8563;DHT22;16392;52.508;13.468;2023-04-15T03:16:31;9.10;99.90
8563;DHT22;16392;52.508;13.468;2023-04-15T03:18:57;9.10;99.90
8563;DHT22;16392;52.508;13.468;2023-04-15T03:21:24;9.10;99.90
8563;DHT22;16392;52.508;13.468;2023-04-15T03:23:51;9.10;99.90
8563;DHT22;16392;52.508;13.468;2023-04-15T03:26:26;9.10;99.90
8563;DHT22;16392;52.508;13.468;2023-04-15T03:28:53;9.10;99.90
8563;DHT22;16392;52.508;13.468;2023-04-15T03:31:20;9.10;99.90
8563;DHT22;16392;52.508;13.468;2023-04-15T03:33:46;9.10;99.90
8563;DHT22;16392;52.508;13.468;2023-04-15T03:36:13;9.10;99.90
8563;DHT22;16392;52.508;13.468;2023-04-15T03:38:40;9.10;99.90
8563;DHT22;16392;52.508;13.468;2023-04-15T03:41:06;9.10;99.90
8563;DHT22;16392;52.508;13.468;2023-04-15T03:43:34;9.10;99.90
8563;DHT22;16392;52.508;13.468;2023-04-15T03:46:01;9.10;99.90
8563;DHT22;16392;52.508;13.468;2023-04-15T03:48:28;9.20;99.90
8563;DHT22;16392;52.508;13.468;2023-04-15T03:50:54;9.20;99.90
8563;DHT22;16392;52.508;13.468;2023-04-15T03:53:21;9.20;99.90
8563;DHT22;16392;52.508;13.468;2023-04-15T03:55:47;9.20;99.90
8563;DHT22;16392;52.508;13.468;2023-04-15T03:58:14;9.20;99.90
8563;DHT22;16392;52.508;13.468;2023-04-15T04:00:42;9.20;99.90
8563;DHT22;16392;52.508;13.468;2023-04-15T04:03:08;9.20;99.90
8563;DHT22;16392;52.508;13.468;2023-04-15T04:05:36;9.20;99.90
8563;DHT22;16392;52.508;13.468;2023-04-15T04:08:03;9.30;99.90
8563;DHT22;16392;52.508;13.468;2023-04-15T04:10:29;9.30;99.90
8563;DHT22;16392;52.508;13.468;2023-04-15T04:12:56;9.30;99.90
8563;DHT22;16392;52.508;13.468;2023-04-15T04:15:22;9.30;99.90
8563;DHT22;16392;52.508;13.468;2023-04-15T04:17:50;9.30;99.90
8563;DHT22;16392;52.508;13.468;2023-04-15T04:20:17;9.30;99.90
8563;DHT22;16392;52.508;13.468;2023-04-15T04:22:43;9.40;99.90
8563;DHT22;16392;52.508;13.468;2023-04-15T04:25:10;9.40;99.90
8563;DHT22;16392;52.508;13.468;2023-04-15T04:27:36;9.40;99.90
8563;DHT22;16392;52.508;13.468;2023-04-15T04:30:03;9.40;99.90
8563;DHT22;16392;52.508;13.468;2023-04-15T04:32:33;9.50;99.90
8563;DHT22;16392;52.508;13.468;2023-04-15T04:35:01;9.50;99.90
8563;DHT22;16392;52.508;13.468;2023-04-15T04:37:28;9.50;99.90
8563;DHT22;16392;52.508;13.468;2023-04-15T04:39:54;9.50;99.90
8563;DHT22;16392;52.508;13.468;2023-04-15T04:42:21;9.50;99.90
8563;DHT22;16392;52.508;13.468;2023-04-15T04:44:47;9.50;99.90
8563;DHT22;16392;52.508;13.468;2023-04-15T04:47:14;9.60;99.90
8563;DHT22;16392;52.508;13.468;2023-04-15T04:49:40;9.60;99.90
8563;DHT22;16392;52.508;13.468;2023-04-15T04:52:08;9.60;99.90
8563;DHT22;16392;52.508;13.468;2023-04-15T04:54:35;9.60;99.90
8563;DHT22;16392;52.508;13.468;2023-04-15T04:57:01;9.60;99.90
8563;DHT22;16392;52.508;13.468;2023-04-15T04:59:28;9.60;99.90
8563;DHT22;16392;52.508;13.468;2023-04-15T05:01:55;9.60;99.90
8563;DHT22;16392;52.508;13.468;2023-04-15T05:04:21;9.60;99.90
8563;DHT22;16392;52.508;13.468;2023-04-15T05:06:48;9.70;99.90
8563;DHT22;16392;52.508;13.468;2023-04-15T05:09:16;9.70;99.90
8563;DHT22;16392;52.508;13.468;2023-04-15T05:11:42;9.70;99.90
8563;DHT22;16392;52.508;13.468;2023-04-15T05:14:09;9.70;99.90
8563;DHT22;16392;52.508;13.468;2023-04-15T05:16:35;9.80;99.90
8563;DHT22;16392;52.508;13.468;2023-04-15T05:19:01;9.80;99.90
8563;DHT22;16392;52.508;13.468;2023-04-15T05:21:28;9.80;99.90
8563;DHT22;16392;52.508;13.468;2023-04-15T05:23:55;9.90;99.90
8563;DHT22;16392;52.508;13.468;2023-04-15T05:26:23;9.80;99.90
8563;DHT22;16392;52.508;13.468;2023-04-15T05:28:51;9.90;99.90
8563;DHT22;16392;52.508;13.468;2023-04-15T05:31:18;9.90;99.90
8563;DHT22;16392;52.508;13.468;2023-04-15T05:33:45;9.90;99.90
8563;DHT22;16392;52.508;13.468;2023-04-15T05:36:11;10.00;99.90
8563;DHT22;16392;52.508;13.468;2023-04-15T05:38:38;10.00;99.90
8563;DHT22;16392;52.508;13.468;2023-04-15T05:41:04;10.10;99.90
8563;DHT22;16392;52.508;13.468;2023-04-15T05:43:32;10.00;99.90
8563;DHT22;16392;52.508;13.468;2023-04-15T05:45:59;10.10;99.90
8563;DHT22;16392;52.508;13.468;2023-04-15T05:48:25;10.10;99.90
8563;DHT22;16392;52.508;13.468;2023-04-15T05:50:52;10.10;99.90
8563;DHT22;16392;52.508;13.468;2023-04-15T05:53:19;10.10;99.90
8563;DHT22;16392;52.508;13.468;2023-04-15T05:55:46;10.20;99.90
8563;DHT22;16392;52.508;13.468;2023-04-15T05:58:12;10.10;99.90
8563;DHT22;16392;52.508;13.468;2023-04-15T06:00:40;10.20;99.90
8563;DHT22;16392;52.508;13.468;2023-04-15T06:03:06;10.20;99.90
8563;DHT22;16392;52.508;13.468;2023-04-15T06:05:33;10.30;99.90
8563;DHT22;16392;52.508;13.468;2023-04-15T06:07:59;10.30;99.90
8563;DHT22;16392;52.508;13.468;2023-04-15T06:10:26;10.30;99.90
8563;DHT22;16392;52.508;13.468;2023-04-15T06:12:53;10.30;99.90
8563;DHT22;16392;52.508;13.468;2023-04-15T06:15:19;10.30;99.90
8563;DHT22;16392;52.508;13.468;2023-04-15T06:17:47;10.30;99.90
8563;DHT22;16392;52.508;13.468;2023-04-15T06:20:14;10.40;99.90
8563;DHT22;16392;52.508;13.468;2023-04-15T06:22:40;10.40;99.90
8563;DHT22;16392;52.508;13.468;2023-04-15T06:25:07;10.40;99.90
8563;DHT22;16392;52.508;13.468;2023-04-15T06:27:34;10.50;99.90
8563;DHT22;16392;52.508;13.468;2023-04-15T06:30:00;10.50;99.90
8563;DHT22;16392;52.508;13.468;2023-04-15T06:32:27;10.50;99.90
8563;DHT22;16392;52.508;13.468;2023-04-15T06:34:55;10.60;99.90
8563;DHT22;16392;52.508;13.468;2023-04-15T06:37:21;10.60;99.90
8563;DHT22;16392;52.508;13.468;2023-04-15T06:39:48;10.70;99.90
8563;DHT22;16392;52.508;13.468;2023-04-15T06:42:14;10.70;99.90
8563;DHT22;16392;52.508;13.468;2023-04-15T06:44:41;10.80;99.90
8563;DHT22;16392;52.508;13.468;2023-04-15T06:47:07;10.80;99.90
8563;DHT22;16392;52.508;13.468;2023-04-15T06:49:34;10.90;99.90
8563;DHT22;16392;52.508;13.468;2023-04-15T06:52:02;11.00;99.90
8563;DHT22;16392;52.508;13.468;2023-04-15T06:54:29;11.00;99.90
8563;DHT22;16392;52.508;13.468;2023-04-15T06:56:56;11.10;99.90
8563;DHT22;16392;52.508;13.468;2023-04-15T06:59:22;11.10;99.90
8563;DHT22;16392;52.508;13.468;2023-04-15T07:01:49;11.10;99.90
8563;DHT22;16392;52.508;13.468;2023-04-15T07:04:16;11.20;99.90
8563;DHT22;16392;52.508;13.468;2023-04-15T07:06:42;11.20;99.90
8563;DHT22;16392;52.508;13.468;2023-04-15T07:09:10;11.30;99.90
8563;DHT22;16392;52.508;13.468;2023-04-15T07:11:37;11.20;99.90
8563;DHT22;16392;52.508;13.468;2023-04-15T07:14:04;11.10;99.90
8563;DHT22;16392;52.508;13.468;2023-04-15T07:16:31;11.10;99.90
8563;DHT22;16392;52.508;13.468;2023-04-15T07:18:57;11.00;99.90
8563;DHT22;16392;52.508;13.468;2023-04-15T07:21:24;11.10;99.90
8563;DHT22;16392;52.508;13.468;2023-04-15T07:23:51;11.10;99.90
8563;DHT22;16392;52.508;13.468;2023-04-15T07:26:20;11.00;99.90
8563;DHT22;16392;52.508;13.468;2023-04-15T07:28:47;11.00;99.90
8563;DHT22;16392;52.508;13.468;2023-04-15T07:31:14;11.10;99.90
8563;DHT22;16392;52.508;13.468;2023-04-15T07:33:41;10.90;99.90
8563;DHT22;16392;52.508;13.468;2023-04-15T07:36:08;10.70;99.90
8563;DHT22;16392;52.508;13.468;2023-04-15T07:38:34;10.60;99.90
8563;DHT22;16392;52.508;13.468;2023-04-15T07:41:01;10.60;99.90
8563;DHT22;16392;52.508;13.468;2023-04-15T07:43:29;10.60;99.90
8563;DHT22;16392;52.508;13.468;2023-04-15T07:45:56;10.60;99.90
8563;DHT22;16392;52.508;13.468;2023-04-15T07:48:22;10.60;99.90
8563;DHT22;16392;52.508;13.468;2023-04-15T07:50:49;10.60;99.90
8563;DHT22;16392;52.508;13.468;2023-04-15T07:53:15;10.60;99.90
8563;DHT22;16392;52.508;13.468;2023-04-15T07:55:42;10.60;99.90
8563;DHT22;16392;52.508;13.468;2023-04-15T07:58:08;10.70;99.90
8563;DHT22;16392;52.508;13.468;2023-04-15T08:00:36;10.70;99.90
8563;DHT22;16392;52.508;13.468;2023-04-15T08:03:03;10.60;99.90
8563;DHT22;16392;52.508;13.468;2023-04-15T08:05:30;10.70;99.90
8563;DHT22;16392;52.508;13.468;2023-04-15T08:07:56;10.70;99.90
8563;DHT22;16392;52.508;13.468;2023-04-15T08:10:23;10.70;99.90
8563;DHT22;16392;52.508;13.468;2023-04-15T08:12:49;10.70;99.90
8563;DHT22;16392;52.508;13.468;2023-04-15T08:15:18;10.60;99.90
8563;DHT22;16392;52.508;13.468;2023-04-15T08:17:46;10.50;99.90
8563;DHT22;16392;52.508;13.468;2023-04-15T08:20:13;10.40;99.90
8563;DHT22;16392;52.508;13.468;2023-04-15T08:22:39;10.30;99.90
8563;DHT22;16392;52.508;13.468;2023-04-15T08:25:07;10.30;99.90
8563;DHT22;16392;52.508;13.468;2023-04-15T08:27:34;10.30;99.90
8563;DHT22;16392;52.508;13.468;2023-04-15T08:30:01;10.30;99.90
8563;DHT22;16392;52.508;13.468;2023-04-15T08:32:28;10.30;99.90
8563;DHT22;16392;52.508;13.468;2023-04-15T08:34:55;10.40;99.90
8563;DHT22;16392;52.508;13.468;2023-04-15T08:37:22;10.40;99.90
8563;DHT22;16392;52.508;13.468;2023-04-15T08:39:48;10.50;99.90
8563;DHT22;16392;52.508;13.468;2023-04-15T08:42:15;10.50;99.90
8563;DHT22;16392;52.508;13.468;2023-04-15T08:44:42;10.50;99.90
8563;DHT22;16392;52.508;13.468;2023-04-15T08:47:09;10.40;99.90
8563;DHT22;16392;52.508;13.468;2023-04-15T08:49:38;10.40;99.90
8563;DHT22;16392;52.508;13.468;2023-04-15T08:52:06;10.40;99.90
8563;DHT22;16392;52.508;13.468;2023-04-15T08:54:33;10.40;99.90
8563;DHT22;16392;52.508;13.468;2023-04-15T08:57:00;10.40;99.90
8563;DHT22;16392;52.508;13.468;2023-04-15T08:59:28;10.40;99.90
8563;DHT22;16392;52.508;13.468;2023-04-15T09:01:55;10.50;99.90
8563;DHT22;16392;52.508;13.468;2023-04-15T09:04:22;10.60;99.90
8563;DHT22;16392;52.508;13.468;2023-04-15T09:06:49;10.50;99.90
8563;DHT22;16392;52.508;13.468;2023-04-15T09:09:17;10.50;99.90
8563;DHT22;16392;52.508;13.468;2023-04-15T09:11:44;10.60;99.90
8563;DHT22;16392;52.508;13.468;2023-04-15T09:14:11;10.70;99.90
8563;DHT22;16392;52.508;13.468;2023-04-15T09:16:57;10.60;99.90
8563;DHT22;16392;52.508;13.468;2023-04-15T09:19:23;10.60;99.90
8563;DHT22;16392;52.508;13.468;2023-04-15T09:21:50;10.60;99.90
8563;DHT22;16392;52.508;13.468;2023-04-15T09:24:18;10.60;99.90
8563;DHT22;16392;52.508;13.468;2023-04-15T09:26:46;10.70;99.90
8563;DHT22;16392;52.508;13.468;2023-04-15T09:29:12;10.80;99.90
8563;DHT22;16392;52.508;13.468;2023-04-15T09:31:39;10.80;99.90
8563;DHT22;16392;52.508;13.468;2023-04-15T09:34:06;10.80;99.90
8563;DHT22;16392;52.508;13.468;2023-04-15T09:36:52;10.80;99.90
8563;DHT22;16392;52.508;13.468;2023-04-15T09:39:21;10.70;99.90
8563;DHT22;16392;52.508;13.468;2023-04-15T09:41:56;10.80;99.90
8563;DHT22;16392;52.508;13.468;2023-04-15T09:44:29;10.80;99.90
8563;DHT22;16392;52.508;13.468;2023-04-15T09:46:55;10.80;99.90
8563;DHT22;16392;52.508;13.468;2023-04-15T09:49:22;10.70;99.90
8563;DHT22;16392;52.508;13.468;2023-04-15T09:51:48;10.60;99.90
8563;DHT22;16392;52.508;13.468;2023-04-15T09:54:17;10.60;99.90
8563;DHT22;16392;52.508;13.468;2023-04-15T09:56:45;10.70;99.90
8563;DHT22;16392;52.508;13.468;2023-04-15T09:59:14;10.60;99.90
8563;DHT22;16392;52.508;13.468;2023-04-15T10:01:41;10.70;99.90
8563;DHT22;16392;52.508;13.468;2023-04-15T10:04:08;10.60;99.90
8563;DHT22;16392;52.508;13.468;2023-04-15T10:06:35;10.60;99.90
8563;DHT22;16392;52.508;13.468;2023-04-15T10:09:02;10.60;99.90
8563;DHT22;16392;52.508;13.468;2023-04-15T10:11:28;10.60;99.90
8563;DHT22;16392;52.508;13.468;2023-04-15T10:13:58;10.50;99.90
8563;DHT22;16392;52.508;13.468;2023-04-15T10:16:25;10.50;99.90
8563;DHT22;16392;52.508;13.468;2023-04-15T10:18:53;10.50;99.90
8563;DHT22;16392;52.508;13.468;2023-04-15T10:21:20;10.50;99.90
8563;DHT22;16392;52.508;13.468;2023-04-15T10:23:48;10.50;99.90
8563;DHT22;16392;52.508;13.468;2023-04-15T10:26:15;10.50;99.90
8563;DHT22;16392;52.508;13.468;2023-04-15T10:28:42;10.50;99.90
8563;DHT22;16392;52.508;13.468;2023-04-15T10:31:10;10.50;99.90
8563;DHT22;16392;52.508;13.468;2023-04-15T10:33:37;10.60;99.90
8563;DHT22;16392;52.508;13.468;2023-04-15T10:36:04;10.60;99.90
8563;DHT22;16392;52.508;13.468;2023-04-15T10:38:33;10.70;99.90
8563;DHT22;16392;52.508;13.468;2023-04-15T10:41:13;10.60;99.90
8563;DHT22;16392;52.508;13.468;2023-04-15T10:43:44;10.70;99.90
8563;DHT22;16392;52.508;13.468;2023-04-15T10:46:12;10.70;99.90
8563;DHT22;16392;52.508;13.468;2023-04-15T10:48:45;10.80;99.90
8563;DHT22;16392;52.508;13.468;2023-04-15T10:51:12;10.80;99.90
8563;DHT22;16392;52.508;13.468;2023-04-15T10:53:40;10.80;99.90
8563;DHT22;16392;52.508;13.468;2023-04-15T10:56:07;10.80;99.90
8563;DHT22;16392;52.508;13.468;2023-04-15T10:58:40;10.80;99.90
8563;DHT22;16392;52.508;13.468;2023-04-15T11:01:06;10.80;99.90
8563;DHT22;16392;52.508;13.468;2023-04-15T11:03:37;10.80;99.90
8563;DHT22;16392;52.508;13.468;2023-04-15T11:06:04;10.80;99.90
8563;DHT22;16392;52.508;13.468;2023-04-15T11:11:16;10.70;99.90
8563;DHT22;16392;52.508;13.468;2023-04-15T11:13:46;10.70;99.90
8563;DHT22;16392;52.508;13.468;2023-04-15T11:16:13;10.70;99.90
8563;DHT22;16392;52.508;13.468;2023-04-15T11:18:40;10.70;99.90
8563;DHT22;16392;52.508;13.468;2023-04-15T11:21:07;10.70;99.90
8563;DHT22;16392;52.508;13.468;2023-04-15T11:23:35;10.70;99.90
8563;DHT22;16392;52.508;13.468;2023-04-15T11:26:03;10.80;99.90
8563;DHT22;16392;52.508;13.468;2023-04-15T11:28:33;10.80;99.90
8563;DHT22;16392;52.508;13.468;2023-04-15T11:31:04;10.80;99.90
8563;DHT22;16392;52.508;13.468;2023-04-15T11:33:31;10.90;99.90
8563;DHT22;16392;52.508;13.468;2023-04-15T11:35:59;10.90;99.90
8563;DHT22;16392;52.508;13.468;2023-04-15T11:38:26;10.90;99.90
8563;DHT22;16392;52.508;13.468;2023-04-15T11:40:53;10.80;99.90
8563;DHT22;16392;52.508;13.468;2023-04-15T11:43:20;10.80;99.90
8563;DHT22;16392;52.508;13.468;2023-04-15T11:45:48;10.80;99.90
8563;DHT22;16392;52.508;13.468;2023-04-15T11:48:15;10.80;99.90
8563;DHT22;16392;52.508;13.468;2023-04-15T11:50:42;10.80;99.90
8563;DHT22;16392;52.508;13.468;2023-04-15T11:53:10;10.80;99.90
8563;DHT22;16392;52.508;13.468;2023-04-15T11:55:41;10.90;99.90
8563;DHT22;16392;52.508;13.468;2023-04-15T11:58:08;10.90;99.90
8563;DHT22;16392;52.508;13.468;2023-04-15T12:00:37;10.90;99.90
8563;DHT22;16392;52.508;13.468;2023-04-15T12:03:11;10.80;99.90
8563;DHT22;16392;52.508;13.468;2023-04-15T12:08:20;10.80;99.90
8563;DHT22;16392;52.508;13.468;2023-04-15T12:10:46;10.80;99.90
8563;DHT22;16392;52.508;13.468;2023-04-15T12:13:13;10.80;99.90
8563;DHT22;16392;52.508;13.468;2023-04-15T12:15:40;11.00;99.90
8563;DHT22;16392;52.508;13.468;2023-04-15T12:18:15;11.00;99.90
8563;DHT22;16392;52.508;13.468;2023-04-15T12:20:42;11.00;99.90
8563;DHT22;16392;52.508;13.468;2023-04-15T12:23:09;11.00;99.90
8563;DHT22;16392;52.508;13.468;2023-04-15T12:25:37;11.10;99.90
8563;DHT22;16392;52.508;13.468;2023-04-15T12:28:09;11.10;99.90
8563;DHT22;16392;52.508;13.468;2023-04-15T12:30:36;11.10;99.90
8563;DHT22;16392;52.508;13.468;2023-04-15T12:33:13;11.20;99.90
8563;DHT22;16392;52.508;13.468;2023-04-15T12:35:40;11.20;99.90
8563;DHT22;16392;52.508;13.468;2023-04-15T12:38:06;11.20;99.90
8563;DHT22;16392;52.508;13.468;2023-04-15T12:40:35;11.30;99.90
8563;DHT22;16392;52.508;13.468;2023-04-15T12:43:02;11.30;99.90
8563;DHT22;16392;52.508;13.468;2023-04-15T12:45:29;11.20;99.90
8563;DHT22;16392;52.508;13.468;2023-04-15T12:47:55;11.20;99.90
8563;DHT22;16392;52.508;13.468;2023-04-15T12:50:22;11.30;99.90
8563;DHT22;16392;52.508;13.468;2023-04-15T12:52:48;11.30;99.90
8563;DHT22;16392;52.508;13.468;2023-04-15T12:55:15;11.30;99.90
8563;DHT22;16392;52.508;13.468;2023-04-15T12:57:42;11.20;99.90
8563;DHT22;16392;52.508;13.468;2023-04-15T13:00:11;11.30;99.90
8563;DHT22;16392;52.508;13.468;2023-04-15T13:02:37;11.30;99.90
8563;DHT22;16392;52.508;13.468;2023-04-15T13:05:04;11.40;99.90
8563;DHT22;16392;52.508;13.468;2023-04-15T13:07:31;11.30;99.90
8563;DHT22;16392;52.508;13.468;2023-04-15T13:09:57;11.30;99.90
8563;DHT22;16392;52.508;13.468;2023-04-15T13:12:24;11.30;99.90
8563;DHT22;16392;52.508;13.468;2023-04-15T13:14:50;11.40;99.90
8563;DHT22;16392;52.508;13.468;2023-04-15T13:17:18;11.40;99.90
8563;DHT22;16392;52.508;13.468;2023-04-15T13:19:46;11.30;99.90
8563;DHT22;16392;52.508;13.468;2023-04-15T13:22:12;11.30;99.90
8563;DHT22;16392;52.508;13.468;2023-04-15T13:24:39;11.30;99.90
8563;DHT22;16392;52.508;13.468;2023-04-15T13:27:06;11.20;99.90
8563;DHT22;16392;52.508;13.468;2023-04-15T13:29:32;11.30;99.90
8563;DHT22;16392;52.508;13.468;2023-04-15T13:31:59;11.50;99.90
8563;DHT22;16392;52.508;13.468;2023-04-15T13:34:27;11.50;99.90
8563;DHT22;16392;52.508;13.468;2023-04-15T13:36:53;11.60;99.90
8563;DHT22;16392;52.508;13.468;2023-04-15T13:39:20;11.50;99.90
8563;DHT22;16392;52.508;13.468;2023-04-15T13:41:46;11.60;99.90
8563;DHT22;16392;52.508;13.468;2023-04-15T13:44:13;11.60;99.90
8563;DHT22;16392;52.508;13.468;2023-04-15T13:46:40;11.60;99.90
8563;DHT22;16392;52.508;13.468;2023-04-15T13:49:06;11.60;99.90
8563;DHT22;16392;52.508;13.468;2023-04-15T13:51:34;11.50;99.90
8563;DHT22;16392;52.508;13.468;2023-04-15T13:54:01;11.50;99.90
8563;DHT22;16392;52.508;13.468;2023-04-15T13:56:37;11.50;99.90
8563;DHT22;16392;52.508;13.468;2023-04-15T13:59:03;11.40;99.90
8563;DHT22;16392;52.508;13.468;2023-04-15T14:01:31;11.40;99.90
8563;DHT22;16392;52.508;13.468;2023-04-15T14:03:57;11.30;99.90
8563;DHT22;16392;52.508;13.468;2023-04-15T14:06:25;11.30;99.90
8563;DHT22;16392;52.508;13.468;2023-04-15T14:08:53;11.20;99.90
8563;DHT22;16392;52.508;13.468;2023-04-15T14:11:20;11.20;99.90
8563;DHT22;16392;52.508;13.468;2023-04-15T14:13:46;11.20;99.90
8563;DHT22;16392;52.508;13.468;2023-04-15T14:16:13;11.20;99.90
8563;DHT22;16392;52.508;13.468;2023-04-15T14:18:39;11.30;99.90
8563;DHT22;16392;52.508;13.468;2023-04-15T14:21:06;11.30;99.90
8563;DHT22;16392;52.508;13.468;2023-04-15T14:23:33;11.20;99.90
8563;DHT22;16392;52.508;13.468;2023-04-15T14:26:01;11.20;99.90
8563;DHT22;16392;52.508;13.468;2023-04-15T14:28:27;11.20;99.90
8563;DHT22;16392;52.508;13.468;2023-04-15T14:30:54;11.20;99.90
8563;DHT22;16392;52.508;13.468;2023-04-15T14:33:20;11.30;99.90
8563;DHT22;16392;52.508;13.468;2023-04-15T14:35:48;11.20;99.90
8563;DHT22;16392;52.508;13.468;2023-04-15T14:38:14;11.30;99.90
8563;DHT22;16392;52.508;13.468;2023-04-15T14:40:41;11.20;99.90
8563;DHT22;16392;52.508;13.468;2023-04-15T14:43:09;11.20;99.90
8563;DHT22;16392;52.508;13.468;2023-04-15T14:45:36;11.20;99.90
8563;DHT22;16392;52.508;13.468;2023-04-15T14:48:03;11.20;99.90
8563;DHT22;16392;52.508;13.468;2023-04-15T14:50:30;11.20;99.90
8563;DHT22;16392;52.508;13.468;2023-04-15T14:52:57;11.20;99.90
8563;DHT22;16392;52.508;13.468;2023-04-15T14:55:24;11.10;99.90
8563;DHT22;16392;52.508;13.468;2023-04-15T14:57:50;11.10;99.90
8563;DHT22;16392;52.508;13.468;2023-04-15T15:00:18;11.10;99.90
8563;DHT22;16392;52.508;13.468;2023-04-15T15:02:45;11.10;99.90
8563;DHT22;16392;52.508;13.468;2023-04-15T15:05:12;11.10;99.90
8563;DHT22;16392;52.508;13.468;2023-04-15T15:07:38;11.10;99.90
8563;DHT22;16392;52.508;13.468;2023-04-15T15:10:06;11.10;99.90
8563;DHT22;16392;52.508;13.468;2023-04-15T15:12:32;11.00;99.90
8563;DHT22;16392;52.508;13.468;2023-04-15T15:14:59;11.00;99.90
8563;DHT22;16392;52.508;13.468;2023-04-15T15:17:27;11.00;99.90
8563;DHT22;16392;52.508;13.468;2023-04-15T15:19:53;10.90;99.90
8563;DHT22;16392;52.508;13.468;2023-04-15T15:22:20;11.00;99.90
8563;DHT22;16392;52.508;13.468;2023-04-15T15:24:47;11.00;99.90
8563;DHT22;16392;52.508;13.468;2023-04-15T15:27:13;11.00;99.90
8563;DHT22;16392;52.508;13.468;2023-04-15T15:29:40;11.00;99.90
8563;DHT22;16392;52.508;13.468;2023-04-15T15:32:06;11.00;99.90
8563;DHT22;16392;52.508;13.468;2023-04-15T15:34:34;11.00;99.90
8563;DHT22;16392;52.508;13.468;2023-04-15T15:37:00;11.00;99.90
8563;DHT22;16392;52.508;13.468;2023-04-15T15:39:27;11.00;99.90
8563;DHT22;16392;52.508;13.468;2023-04-15T15:41:53;11.00;99.90